Time;durP1;ratioP1;P1;durP2;ratioP2;P2;SDS_P1;SDS_P2;PMS_P1;PMS_P2;Temp;Humidity;BMP_temperature;BMP_pressure;BME280_temperature;BME280_humidity;BME280_pressure;Samples;Min_cycle;Max_cycle;Signal;HPM_P1;HPM_P2
2024/03/16 00:03:09;;;;;;;65.30;26.10;;;;;;;9.34;68.80;98795.91;233866;180;151291;-64
2024/03/16 00:08:13;;;;;;;;;;;;;;;9.29;68.87;98799.60;233491;180;137074;-64
2024/03/16 00:13:16;;;;;;;55.30;25.20;;;;;;;9.21;68.96;98797.21;233834;180;140965;-64
2024/03/16 00:18:19;;;;;;;63.00;27.30;;;;;;;9.14;69.15;98797.29;233794;180;152358;-65
2024/03/16 00:23:22;;;;;;;64.50;28.00;;;;;;;9.10;69.12;98799.15;233845;180;136770;-64
2024/03/16 00:28:25;;;;;;;65.20;27.20;;;;;;;9.00;69.19;98799.17;233856;180;137974;-64
2024/03/16 00:33:28;;;;;;;58.80;27.60;;;;;;;8.95;69.36;98795.04;233796;180;151368;-64
2024/03/16 00:38:31;;;;;;;52.60;28.40;;;;;;;8.93;69.24;98792.53;233251;179;137753;-65
2024/03/16 00:43:34;;;;;;;53.30;28.50;;;;;;;8.97;69.19;98786.48;233772;180;137473;-63
2024/03/16 00:48:37;;;;;;;50.90;28.10;;;;;;;8.96;69.12;98782.75;233797;180;152030;-64
2024/03/16 00:53:43;;;;;;;50.30;29.00;;;;;;;8.92;69.19;98773.85;233798;180;138376;-65
2024/03/16 00:58:46;;;;;;;55.10;28.70;;;;;;;8.87;69.11;98770.08;233817;180;137995;-64
2024/03/16 01:03:49;;;;;;;46.90;29.20;;;;;;;8.80;69.18;98766.23;233472;180;151254;-64
2024/03/16 01:08:54;;;;;;;54.10;30.80;;;;;;;8.76;69.34;98765.41;233853;180;137059;-64
2024/03/16 01:13:57;;;;;;;49.00;30.40;;;;;;;8.69;69.35;98766.17;233824;180;137733;-64
2024/03/16 01:19:01;;;;;;;51.80;28.50;;;;;;;8.58;69.58;98758.69;233839;180;151125;-64
2024/03/16 01:24:05;;;;;;;55.20;27.90;;;;;;;8.48;69.80;98755.55;233775;180;137576;-65
2024/03/16 01:29:13;;;;;;;50.00;28.30;;;;;;;8.45;70.19;98745.84;233820;180;136988;-65
2024/03/16 01:34:16;;;;;;;45.50;26.30;;;;;;;8.44;70.21;98740.92;233773;180;151346;-65
2024/03/16 01:39:19;;;;;;;36.30;24.20;;;;;;;8.44;70.20;98739.52;233780;180;138763;-65
2024/03/16 01:44:22;;;;;;;44.70;26.30;;;;;;;8.40;70.30;98739.56;233799;180;139611;-65
2024/03/16 01:49:25;;;;;;;51.10;26.30;;;;;;;8.43;70.43;98737.46;233809;180;152151;-65
2024/03/16 01:54:28;;;;;;;45.00;26.40;;;;;;;8.42;70.58;98738.02;233816;180;136789;-65
2024/03/16 01:59:31;;;;;;;39.60;26.20;;;;;;;8.44;70.77;98736.88;233758;179;140911;-65
2024/03/16 02:04:34;;;;;;;49.10;25.80;;;;;;;8.48;70.70;98742.63;233871;180;151198;-66
2024/03/16 02:09:38;;;;;;;46.40;25.90;;;;;;;8.47;70.56;98741.61;233825;179;137446;-65
2024/03/16 02:14:42;;;;;;;42.20;26.70;;;;;;;8.43;70.54;98740.10;233683;179;136775;-65
2024/03/16 02:19:47;;;;;;;56.20;27.30;;;;;;;8.40;70.60;98747.02;233818;179;151211;-65
2024/03/16 02:24:50;;;;;;;69.50;29.50;;;;;;;8.34;70.69;98744.31;233905;180;137935;-65
2024/03/16 02:29:53;;;;;;;68.90;30.40;;;;;;;8.28;70.75;98748.19;233805;179;138056;-66
2024/03/16 02:34:56;;;;;;;54.90;29.90;;;;;;;8.21;70.83;98749.27;233837;179;151923;-65
2024/03/16 02:39:59;;;;;;;49.40;29.20;;;;;;;8.21;70.68;98744.31;233704;179;137855;-65
2024/03/16 02:45:03;;;;;;;52.60;29.40;;;;;;;8.24;70.78;98748.40;233883;180;138141;-65
2024/03/16 02:50:09;;;;;;;61.00;30.40;;;;;;;8.27;70.60;98746.29;233842;179;152387;-65
2024/03/16 02:55:13;;;;;;;61.20;33.40;;;;;;;8.32;70.56;98746.02;233719;180;137825;-65
2024/03/16 03:00:17;;;;;;;63.30;30.50;;;;;;;8.34;70.54;98747.16;233790;180;136906;-66
2024/03/16 03:05:22;;;;;;;59.10;31.20;;;;;;;8.29;70.77;98750.79;233729;180;151798;-65
2024/03/16 03:10:25;;;;;;;51.00;30.70;;;;;;;8.29;71.12;98753.08;233752;179;138302;-65
2024/03/16 03:15:28;;;;;;;56.60;30.60;;;;;;;8.26;71.12;98749.70;233658;180;137731;-65
2024/03/16 03:20:32;;;;;;;61.10;30.90;;;;;;;8.21;71.33;98751.42;233714;179;151337;-65
2024/03/16 03:25:35;;;;;;;59.90;30.40;;;;;;;8.20;71.59;98751.67;233826;179;136931;-65
2024/03/16 03:30:43;;;;;;;64.20;28.90;;;;;;;8.18;71.53;98745.56;233868;179;137931;-64
2024/03/16 03:35:46;;;;;;;65.20;30.30;;;;;;;8.18;71.49;98746.79;233587;179;151345;-65
2024/03/16 03:40:49;;;;;;;76.70;30.50;;;;;;;8.23;71.50;98746.89;233637;179;138247;-65
2024/03/16 03:45:52;;;;;;;75.10;30.40;;;;;;;8.28;71.51;98746.23;233827;179;137556;-65
2024/03/16 03:50:57;;;;;;;69.50;31.40;;;;;;;8.31;71.38;98745.89;233945;180;151523;-65
2024/03/16 03:56:00;;;;;;;75.70;32.30;;;;;;;8.34;71.55;98747.54;233810;180;139350;-66
2024/03/16 04:01:03;;;;;;;87.20;32.60;;;;;;;8.33;71.46;98750.55;233846;180;137969;-65
2024/03/16 04:06:07;;;;;;;75.50;31.70;;;;;;;8.33;71.50;98751.27;233721;168;153102;-66
2024/03/16 04:11:09;;;;;;;78.70;31.30;;;;;;;8.31;71.64;98748.73;233580;179;137167;-66
2024/03/16 04:16:14;;;;;;;76.80;31.70;;;;;;;8.30;71.67;98751.44;233844;180;137801;-65
2024/03/16 04:21:18;;;;;;;79.50;32.40;;;;;;;8.26;71.64;98751.84;233776;177;151365;-65
2024/03/16 04:26:20;;;;;;;66.10;31.00;;;;;;;8.26;71.62;98757.48;233684;177;136778;-65
2024/03/16 04:31:23;;;;;;;70.20;30.30;;;;;;;8.29;71.50;98757.30;233840;180;137868;-65
2024/03/16 04:36:26;;;;;;;64.50;31.30;;;;;;;8.36;71.36;98758.86;233800;180;152332;-66
2024/03/16 04:41:29;;;;;;;70.20;32.20;;;;;;;8.46;71.28;98760.27;233731;180;137452;-66
2024/03/16 04:46:35;;;;;;;66.20;32.70;;;;;;;8.48;70.99;98760.98;233737;180;137911;-66
2024/03/16 04:51:38;;;;;;;60.30;32.10;;;;;;;8.50;71.10;98759.87;233828;180;151878;-64
2024/03/16 04:56:42;;;;;;;60.70;32.90;;;;;;;8.49;71.26;98760.25;233724;180;137623;-66
2024/03/16 05:01:45;;;;;;;64.10;33.00;;;;;;;8.55;71.58;98762.57;233742;180;137165;-65
2024/03/16 05:06:49;;;;;;;65.10;33.50;;;;;;;8.61;71.62;98766.97;233845;180;151575;-66
2024/03/16 05:11:52;;;;;;;59.20;32.60;;;;;;;8.65;71.76;98770.83;233865;180;137542;-65
2024/03/16 05:16:55;;;;;;;57.80;29.80;;;;;;;8.69;71.99;98770.61;233586;180;137945;-65
2024/03/16 05:21:58;;;;;;;52.50;28.20;;;;;;;8.82;72.08;98767.70;233872;180;151432;-66
2024/03/16 05:27:04;;;;;;;79.60;34.00;;;;;;;9.07;71.83;98770.81;233847;180;138433;-66
2024/03/16 05:32:08;;;;;;;61.20;31.10;;;;;;;9.17;71.66;98773.19;233794;180;137605;-65
2024/03/16 05:37:10;;;;;;;62.20;32.50;;;;;;;9.23;71.49;98771.94;233155;180;151646;-64
2024/03/16 05:42:13;;;;;;;67.60;32.80;;;;;;;9.25;71.36;98775.89;233673;180;138049;-64
2024/03/16 05:47:21;;;;;;;70.50;34.40;;;;;;;9.28;71.31;98776.12;233853;179;137328;-64
2024/03/16 05:52:24;;;;;;;78.40;35.10;;;;;;;9.29;71.21;98777.13;233734;179;153419;-65
2024/03/16 05:57:27;;;;;;;79.40;33.80;;;;;;;9.29;71.22;98772.18;233853;179;136657;-65
2024/03/16 06:02:30;;;;;;;67.30;34.10;;;;;;;9.29;71.34;98771.07;233723;179;138779;-64
2024/03/16 06:07:33;;;;;;;66.00;31.60;;;;;;;9.33;71.56;98767.83;233721;180;152685;-65
2024/03/16 06:12:37;;;;;;;75.20;32.50;;;;;;;9.39;71.62;98768.33;233837;180;139803;-66
2024/03/16 06:17:40;;;;;;;71.70;34.30;;;;;;;9.54;71.71;98772.73;233660;179;138078;-65
2024/03/16 06:22:48;;;;;;;77.20;32.20;;;;;;;9.69;71.69;98778.15;233787;179;152577;-63
2024/03/16 06:27:52;;;;;;;72.10;32.10;;;;;;;9.82;71.57;98781.64;233708;180;137762;-65
2024/03/16 06:33:20;;;;;;;71.40;33.40;;;;;;;9.92;71.58;98788.06;233861;179;137689;-64
2024/03/16 06:38:25;;;;;;;75.50;32.40;;;;;;;10.03;71.50;98792.13;233789;180;151458;-65
2024/03/16 06:43:28;;;;;;;68.90;31.30;;;;;;;10.14;71.55;98794.26;233765;179;137175;-65
2024/03/16 06:48:31;;;;;;;76.70;30.50;;;;;;;10.26;71.60;98803.62;233836;179;137959;-67
2024/03/16 06:53:34;;;;;;;62.90;28.90;;;;;;;10.40;71.68;98811.79;233755;179;151855;-65
2024/03/16 06:58:37;;;;;;;61.30;28.60;;;;;;;10.56;71.71;98809.98;233791;179;137906;-66
2024/03/16 07:03:40;;;;;;;53.90;28.50;;;;;;;10.77;71.69;98815.73;233703;180;137325;-66
2024/03/16 07:08:43;;;;;;;33.20;18.20;;;;;;;10.98;71.29;98821.23;233803;179;151455;-65
2024/03/16 07:13:47;;;;;;;40.20;20.80;;;;;;;11.16;69.48;98823.56;233600;179;137066;-64
2024/03/16 07:18:50;;;;;;;22.20;15.30;;;;;;;11.37;68.51;98826.92;233702;179;137799;-66
2024/03/16 07:23:53;;;;;;;23.00;14.80;;;;;;;11.52;66.65;98828.02;233839;179;151091;-66
2024/03/16 07:28:56;;;;;;;23.50;14.50;;;;;;;11.63;65.68;98830.29;233770;179;137637;-65
2024/03/16 07:33:59;;;;;;;23.40;14.20;;;;;;;11.73;64.86;98831.90;233832;179;137312;-62
2024/03/16 07:39:08;;;;;;;24.30;14.80;;;;;;;11.85;64.35;98836.96;233616;179;151470;-63
2024/03/16 07:44:11;;;;;;;29.10;15.10;;;;;;;11.94;64.07;98838.24;233798;179;139027;-62
2024/03/16 07:49:14;;;;;;;24.70;14.70;;;;;;;12.05;63.81;98839.64;233706;179;136821;-63
2024/03/16 07:54:17;;;;;;;24.90;14.20;;;;;;;12.16;63.60;98843.98;233835;180;151467;-62
2024/03/16 07:59:20;;;;;;;19.20;13.40;;;;;;;12.26;63.27;98844.84;233762;179;137836;-61
2024/03/16 08:04:23;;;;;;;21.90;14.00;;;;;;;12.38;63.10;98846.36;233690;180;137221;-62
2024/03/16 08:09:26;;;;;;;20.10;13.60;;;;;;;12.53;63.05;98845.95;233694;180;152140;-62
2024/03/16 08:14:34;;;;;;;22.20;13.80;;;;;;;12.66;62.43;98849.77;233782;177;137346;-63
2024/03/16 08:19:38;;;;;;;19.80;11.80;;;;;;;12.75;61.94;98849.98;233715;180;139687;-62
2024/03/16 08:24:42;;;;;;;22.00;12.30;;;;;;;12.86;61.60;98849.76;233774;180;151059;-60
2024/03/16 08:29:45;;;;;;;21.90;12.80;;;;;;;12.95;61.40;98851.23;233679;180;137142;-61
2024/03/16 08:34:48;;;;;;;16.90;12.60;;;;;;;13.04;61.45;98854.67;233698;180;137175;-62
2024/03/16 08:39:51;;;;;;;23.00;14.20;;;;;;;13.07;61.19;98857.40;233713;180;151811;-62
2024/03/16 08:44:54;;;;;;;23.20;14.30;;;;;;;13.19;61.32;98857.63;233657;180;137013;-66
2024/03/16 08:49:57;;;;;;;21.40;13.90;;;;;;;13.33;60.95;98852.27;233090;180;137361;-64
2024/03/16 08:54:59;;;;;;;20.70;13.00;;;;;;;13.45;60.97;98844.76;233703;179;151845;-65
2024/03/16 09:00:04;;;;;;;19.50;12.80;;;;;;;13.52;60.37;98846.73;233817;180;136747;-64
2024/03/16 09:05:10;;;;;;;18.80;13.10;;;;;;;13.58;60.33;98844.14;233674;180;138257;-64
2024/03/16 09:10:13;;;;;;;18.60;12.70;;;;;;;13.70;60.59;98843.75;233582;180;151926;-64
2024/03/16 09:15:17;;;;;;;17.00;12.00;;;;;;;13.82;60.08;98839.92;233797;180;137054;-64
2024/03/16 09:20:20;;;;;;;15.30;11.10;;;;;;;13.93;59.58;98841.88;233658;180;137041;-65
2024/03/16 09:25:23;;;;;;;15.10;10.10;;;;;;;14.05;59.06;98839.73;233747;180;151451;-65
2024/03/16 09:30:26;;;;;;;17.90;10.10;;;;;;;14.20;59.18;98841.52;233764;180;138113;-65
2024/03/16 09:35:29;;;;;;;13.90;9.20;;;;;;;14.37;58.53;98842.28;233798;180;138333;-64
2024/03/16 09:41:07;;;;;;;14.30;9.40;;;;;;;14.47;58.18;98844.20;233762;180;152455;-65
2024/03/16 09:46:04;;;;;;;11.60;9.00;;;;;;;14.61;58.14;98848.29;233785;180;137317;-65
2024/03/16 09:51:17;;;;;;;16.10;9.70;;;;;;;14.73;57.99;98842.47;233787;180;137660;-64
2024/03/16 09:56:20;;;;;;;16.40;9.60;;;;;;;14.83;58.56;98842.83;233709;180;151615;-65
2024/03/16 10:01:24;;;;;;;18.30;9.10;;;;;;;14.95;58.49;98839.39;233767;180;138069;-65
2024/03/16 10:06:27;;;;;;;12.20;9.50;;;;;;;15.06;58.45;98836.31;233799;168;137033;-65
2024/03/16 10:11:30;;;;;;;14.10;9.20;;;;;;;15.13;58.24;98837.66;233837;179;152723;-65
2024/03/16 10:16:34;;;;;;;10.40;8.40;;;;;;;15.18;57.99;98841.20;233825;179;137691;-65
2024/03/16 10:21:37;;;;;;;14.60;7.90;;;;;;;15.18;57.81;98841.02;233719;179;137235;-65
2024/03/16 10:26:41;;;;;;;14.20;8.90;;;;;;;15.24;58.15;98840.51;233754;179;152769;-65
2024/03/16 10:31:44;;;;;;;13.10;8.40;;;;;;;15.34;58.09;98832.50;233693;180;137031;-65
2024/03/16 10:36:47;;;;;;;11.50;7.90;;;;;;;15.48;58.29;98827.89;233712;180;136947;-65
2024/03/16 10:41:52;;;;;;;9.20;7.20;;;;;;;15.65;57.91;98828.92;233785;180;151349;-66
2024/03/16 10:46:55;;;;;;;10.80;6.50;;;;;;;15.85;58.19;98824.42;233661;177;136859;-65
2024/03/16 10:51:59;;;;;;;7.90;5.40;;;;;;;16.02;57.23;98822.89;233795;179;138421;-65
2024/03/16 10:57:07;;;;;;;9.20;6.20;;;;;;;16.05;56.21;98814.08;233753;179;152873;-65
2024/03/16 11:02:12;;;;;;;8.10;5.30;;;;;;;16.07;56.35;98808.67;233646;173;136526;-65
2024/03/16 11:07:17;;;;;;;;;;;;;;;16.15;55.74;98809.41;233765;179;136526;-65
2024/03/16 11:12:30;;;;;;;9.00;5.70;;;;;;;16.19;55.52;98807.23;233866;180;151477;-65
2024/03/16 11:17:33;;;;;;;8.20;5.20;;;;;;;16.14;55.47;98808.84;233343;179;137180;-66
2024/03/16 11:22:37;;;;;;;6.40;4.90;;;;;;;16.10;55.57;98810.75;233772;179;136897;-66
2024/03/16 11:27:49;;;;;;;7.00;5.10;;;;;;;16.16;55.44;98802.14;233803;179;151659;-65
2024/03/16 11:33:15;;;;;;;8.00;5.50;;;;;;;16.26;55.25;98798.57;233715;179;141227;-65
2024/03/16 11:38:19;;;;;;;8.10;5.60;;;;;;;16.40;55.02;98794.86;233776;179;138969;-66
2024/03/16 11:43:23;;;;;;;7.50;5.00;;;;;;;16.53;54.85;98790.08;233640;179;152650;-67
2024/03/16 11:48:26;;;;;;;11.40;5.00;;;;;;;16.60;54.32;98785.16;233671;179;137248;-64
2024/03/16 11:53:30;;;;;;;8.00;4.40;;;;;;;16.70;54.19;98783.48;233758;179;136922;-64
2024/03/16 11:58:34;;;;;;;9.80;5.30;;;;;;;16.82;53.92;98778.52;233714;180;152169;-64
2024/03/16 12:03:40;;;;;;;7.30;4.80;;;;;;;17.05;53.07;98779.45;233817;180;137880;-64
2024/03/16 12:08:43;;;;;;;6.90;5.40;;;;;;;17.14;52.80;98773.54;233822;180;138121;-64
2024/03/16 12:13:47;;;;;;;10.20;5.50;;;;;;;17.27;52.36;98775.43;233662;180;151456;-64
2024/03/16 12:18:51;;;;;;;9.50;5.40;;;;;;;17.45;52.55;98766.30;233738;180;136965;-65
2024/03/16 12:23:53;;;;;;;11.20;5.10;;;;;;;17.60;52.02;98765.30;233740;180;137440;-64
2024/03/16 12:29:19;;;;;;;8.90;5.20;;;;;;;17.63;51.91;98759.20;233660;180;152751;-64
2024/03/16 12:34:25;;;;;;;6.60;4.80;;;;;;;17.62;51.28;98764.19;233631;180;136991;-65
2024/03/16 12:39:32;;;;;;;7.50;4.00;;;;;;;17.56;51.31;98762.23;233759;180;138073;-64
2024/03/16 12:44:35;;;;;;;6.00;3.80;;;;;;;17.52;51.15;98755.46;233817;168;151996;-65
2024/03/16 12:49:38;;;;;;;9.90;3.70;;;;;;;17.53;51.31;98757.89;233647;180;137385;-64
2024/03/16 12:54:41;;;;;;;8.70;3.40;;;;;;;17.62;51.04;98756.27;233786;180;137972;-63
2024/03/16 12:59:44;;;;;;;7.70;3.20;;;;;;;17.60;50.20;98750.70;233706;180;152359;-64
2024/03/16 13:04:47;;;;;;;4.80;2.90;;;;;;;17.56;50.09;98752.42;233662;180;137873;-63
2024/03/16 13:09:52;;;;;;;4.80;3.00;;;;;;;17.67;49.92;98749.70;233723;179;137440;-64
2024/03/16 13:14:55;;;;;;;6.70;3.40;;;;;;;17.79;49.78;98745.14;233598;180;151968;-65
2024/03/16 13:19:58;;;;;;;7.10;3.20;;;;;;;17.76;49.66;98743.12;233761;180;136621;-64
2024/03/16 13:25:01;;;;;;;6.20;3.10;;;;;;;17.88;49.66;98734.39;233489;180;137656;-64
2024/03/16 13:30:05;;;;;;;6.10;3.30;;;;;;;18.19;49.36;98731.73;233782;180;151977;-64
2024/03/16 13:35:08;;;;;;;3.50;2.60;;;;;;;18.51;48.34;98728.77;233754;180;137887;-64
2024/03/16 13:40:12;;;;;;;5.60;3.30;;;;;;;18.64;47.68;98726.03;233772;180;136704;-64
2024/03/16 13:45:14;;;;;;;8.40;3.20;;;;;;;18.92;47.06;98723.95;233494;176;152247;-64
2024/03/16 13:50:18;;;;;;;7.70;3.50;;;;;;;18.94;46.69;98716.72;233748;180;138213;-65
2024/03/16 13:55:22;;;;;;;8.80;3.60;;;;;;;18.70;46.65;98717.54;233844;180;137931;-65
2024/03/16 14:00:26;;;;;;;4.80;2.90;;;;;;;18.45;47.01;98716.41;233678;180;151391;-65
2024/03/16 14:05:31;;;;;;;5.60;3.20;;;;;;;18.32;47.55;98709.31;233705;180;137004;-65
2024/03/16 14:10:34;;;;;;;4.20;2.70;;;;;;;18.31;47.82;98704.50;233859;180;138020;-62
2024/03/16 14:15:37;;;;;;;5.50;3.00;;;;;;;18.28;47.45;98700.52;233796;179;152485;-62
2024/03/16 14:20:40;;;;;;;5.70;3.00;;;;;;;18.20;47.56;98700.08;233777;180;137188;-63
2024/03/16 14:25:42;;;;;;;5.40;3.00;;;;;;;18.12;47.90;98694.38;233753;179;139549;-64
2024/03/16 14:30:46;;;;;;;6.90;3.40;;;;;;;18.01;47.98;98693.27;233847;179;151509;-64
2024/03/16 14:35:52;;;;;;;10.10;3.10;;;;;;;17.93;48.12;98688.36;233767;179;136981;-64
2024/03/16 14:40:55;;;;;;;5.30;2.60;;;;;;;17.81;48.28;98685.19;233700;179;136756;-64
2024/03/16 14:45:58;;;;;;;7.60;3.10;;;;;;;17.73;48.39;98680.73;233715;176;151203;-63
2024/03/16 14:51:01;;;;;;;5.10;3.10;;;;;;;17.69;48.76;98683.81;233817;180;136570;-66
2024/03/16 14:56:05;;;;;;;4.70;2.10;;;;;;;17.64;48.21;98685.55;233773;179;137109;-64
2024/03/16 15:01:08;;;;;;;6.00;2.40;;;;;;;17.55;47.44;98688.80;233783;179;152264;-62
2024/03/16 15:06:11;;;;;;;3.60;2.40;;;;;;;17.43;47.78;98690.45;233748;179;136653;-62
2024/03/16 15:11:15;;;;;;;6.20;2.30;;;;;;;17.30;48.64;98701.27;233697;180;137629;-65
2024/03/16 15:16:18;;;;;;;5.70;2.40;;;;;;;17.11;50.82;98719.72;233798;179;151518;-63
2024/03/16 15:21:21;;;;;;;9.60;2.70;;;;;;;16.84;53.80;98763.80;233777;179;136748;-62
2024/03/16 15:26:32;;;;;;;6.20;2.40;;;;;;;16.31;56.30;98764.45;233819;179;137807;-63
2024/03/16 15:31:35;;;;;;;3.90;1.90;;;;;;;15.77;58.44;98772.82;233435;179;151486;-64
2024/03/16 15:36:38;;;;;;;4.10;1.70;;;;;;;15.49;59.91;98772.27;233808;179;136656;-64
2024/03/16 15:41:41;;;;;;;3.00;1.60;;;;;;;15.20;61.30;98769.40;233750;179;137377;-63
2024/03/16 15:46:45;;;;;;;2.90;1.80;;;;;;;15.06;62.30;98769.48;233835;179;152005;-64
2024/03/16 15:51:48;;;;;;;6.50;1.90;;;;;;;14.82;63.28;98776.67;233395;179;136863;-63
2024/03/16 15:56:57;;;;;;;5.80;2.50;;;;;;;14.65;64.46;98774.55;233773;180;137573;-64
2024/03/16 16:02:00;;;;;;;4.20;2.20;;;;;;;14.57;65.11;98774.64;233708;180;153530;-63
2024/03/16 16:07:03;;;;;;;4.90;2.30;;;;;;;14.53;65.72;98778.20;233787;180;136634;-64
2024/03/16 16:12:07;;;;;;;3.30;2.20;;;;;;;14.52;66.10;98774.02;233762;180;137024;-63
2024/03/16 16:17:12;;;;;;;4.90;2.80;;;;;;;14.59;66.35;98769.65;233511;180;151542;-63
2024/03/16 16:22:15;;;;;;;11.20;5.80;;;;;;;14.66;66.62;98772.66;233796;180;136552;-63
2024/03/16 16:27:18;;;;;;;4.50;2.90;;;;;;;14.73;66.70;98775.66;233828;180;137324;-63
2024/03/16 16:32:21;;;;;;;4.60;2.90;;;;;;;14.74;66.87;98775.00;233663;180;151151;-63
2024/03/16 16:37:24;;;;;;;6.60;4.00;;;;;;;14.75;67.00;98779.38;233821;180;137045;-63
2024/03/16 16:42:30;;;;;;;9.70;3.50;;;;;;;14.75;67.13;98780.52;233783;179;136562;-63
2024/03/16 16:47:33;;;;;;;7.50;3.90;;;;;;;14.72;67.30;98784.48;233659;180;151477;-64
2024/03/16 16:52:36;;;;;;;6.30;4.00;;;;;;;14.70;67.42;98785.34;233257;180;136901;-63
2024/03/16 16:57:39;;;;;;;8.30;4.70;;;;;;;14.68;67.62;98794.14;233782;180;136886;-63
2024/03/16 17:02:42;;;;;;;8.30;4.80;;;;;;;14.65;67.54;98798.98;233772;180;151836;-63
2024/03/16 17:07:45;;;;;;;9.10;4.60;;;;;;;14.65;67.48;98809.17;233804;180;137599;-62
2024/03/16 17:12:48;;;;;;;8.70;4.40;;;;;;;14.69;67.43;98810.30;233730;180;139501;-62
2024/03/16 17:17:52;;;;;;;10.40;4.70;;;;;;;14.76;67.00;98818.11;233812;179;151123;-63
2024/03/16 17:22:55;;;;;;;8.30;4.60;;;;;;;14.78;66.55;98824.56;233688;180;137661;-64
2024/03/16 17:27:58;;;;;;;11.80;5.40;;;;;;;14.76;66.19;98824.52;233769;180;136696;-63
2024/03/16 17:33:01;;;;;;;6.70;4.50;;;;;;;14.71;66.30;98835.17;233706;180;154249;-64
2024/03/16 17:38:08;;;;;;;7.90;4.90;;;;;;;14.64;65.81;98840.47;233522;180;137857;-65
2024/03/16 17:43:11;;;;;;;9.10;5.40;;;;;;;14.60;65.59;98840.86;233842;176;137592;-65
2024/03/16 17:48:14;;;;;;;9.00;5.40;;;;;;;14.54;65.62;98844.55;233796;180;151493;-62
2024/03/16 17:53:17;;;;;;;8.30;5.10;;;;;;;14.50;65.52;98846.84;233412;180;137153;-65
2024/03/16 17:58:21;;;;;;;10.10;5.60;;;;;;;14.47;65.37;98848.84;233667;180;137655;-64
2024/03/16 18:03:24;;;;;;;7.90;5.50;;;;;;;14.44;65.28;98854.73;233763;179;151862;-64
2024/03/16 18:08:28;;;;;;;13.00;5.90;;;;;;;14.40;65.50;98859.22;233704;179;137431;-65
2024/03/16 18:13:32;;;;;;;9.30;5.70;;;;;;;14.35;65.70;98861.73;233835;180;140700;-64
2024/03/16 18:18:35;;;;;;;10.80;6.40;;;;;;;14.28;65.58;98863.35;233702;180;151618;-65
2024/03/16 18:23:38;;;;;;;7.70;4.80;;;;;;;14.24;65.26;98867.29;233767;180;137631;-65
2024/03/16 18:28:41;;;;;;;9.50;5.50;;;;;;;14.18;65.21;98868.65;233678;180;137049;-64
2024/03/16 18:33:44;;;;;;;6.80;4.90;;;;;;;14.16;64.98;98874.14;233753;179;151264;-64
2024/03/16 18:38:48;;;;;;;7.60;5.10;;;;;;;14.11;64.83;98883.79;233684;179;137479;-64
2024/03/16 18:43:55;;;;;;;12.50;5.80;;;;;;;14.06;64.80;98884.23;233674;180;137134;-65
2024/03/16 18:49:01;;;;;;;8.70;5.90;;;;;;;14.00;64.79;98890.94;233759;179;152731;-65
2024/03/16 18:54:04;;;;;;;12.80;6.30;;;;;;;13.93;64.70;98889.69;233774;179;136808;-65
2024/03/16 18:59:07;;;;;;;8.60;5.80;;;;;;;13.81;64.83;98886.73;233308;179;138163;-63
2024/03/16 19:04:10;;;;;;;11.30;6.50;;;;;;;13.71;64.98;98885.49;233677;179;151492;-63
2024/03/16 19:09:13;;;;;;;8.40;6.10;;;;;;;13.66;65.17;98887.70;233754;179;136916;-62
2024/03/16 19:14:16;;;;;;;9.40;6.10;;;;;;;13.61;65.22;98885.94;233769;179;136707;-61
2024/03/16 19:19:19;;;;;;;10.40;6.00;;;;;;;13.54;65.41;98891.12;233717;179;152562;-62
2024/03/16 19:24:22;;;;;;;11.70;6.20;;;;;;;13.46;65.62;98898.63;233792;179;138110;-62
2024/03/16 19:29:25;;;;;;;10.40;6.40;;;;;;;13.41;65.81;98905.45;233828;179;137175;-60
2024/03/16 19:34:28;;;;;;;10.80;7.10;;;;;;;13.42;65.85;98907.14;233778;179;151638;-61
2024/03/16 19:39:32;;;;;;;13.50;7.40;;;;;;;13.49;65.91;98912.54;233788;179;137537;-64
2024/03/16 19:44:35;;;;;;;15.10;8.60;;;;;;;13.46;65.95;98919.52;233750;179;137454;-62
2024/03/16 19:49:38;;;;;;;13.90;8.70;;;;;;;13.44;65.96;98924.13;233716;179;151630;-62
2024/03/16 19:54:44;;;;;;;14.30;8.60;;;;;;;13.36;66.02;98923.29;233625;180;137714;-62
2024/03/16 19:59:47;;;;;;;13.20;8.20;;;;;;;13.37;66.08;98927.21;233736;180;137745;-61
2024/03/16 20:04:50;;;;;;;12.30;7.40;;;;;;;13.34;66.98;98925.08;233739;180;151656;-62
2024/03/16 20:09:56;;;;;;;11.40;6.30;;;;;;;13.26;67.87;98924.95;233760;180;140433;-62
2024/03/16 20:14:59;;;;;;;9.10;4.80;;;;;;;13.24;68.33;98923.68;233786;180;137817;-61
2024/03/16 20:20:08;;;;;;;7.80;4.40;;;;;;;13.27;68.54;98921.14;233749;179;151169;-62
2024/03/16 20:25:11;;;;;;;6.20;3.60;;;;;;;13.26;68.93;98921.73;233244;180;138705;-60
2024/03/16 20:30:15;;;;;;;6.70;3.70;;;;;;;13.33;69.29;98914.83;233623;180;139389;-62
2024/03/16 20:35:18;;;;;;;6.10;3.40;;;;;;;13.33;69.64;98913.77;233733;180;151365;-65
2024/03/16 20:40:23;;;;;;;6.80;4.20;;;;;;;13.35;69.75;98924.83;233815;180;137611;-63
2024/03/16 20:45:26;;;;;;;9.00;4.30;;;;;;;13.31;70.17;98925.70;233618;179;137153;-65
2024/03/16 20:50:30;;;;;;;7.50;4.90;;;;;;;13.23;70.40;98928.34;233663;180;151298;-64
2024/03/16 20:55:33;;;;;;;8.00;5.70;;;;;;;13.17;70.67;98930.39;233644;179;136656;-64
2024/03/16 21:00:38;;;;;;;9.40;5.50;;;;;;;13.12;70.92;98937.73;233231;180;137834;-64
2024/03/16 21:05:41;;;;;;;8.30;5.00;;;;;;;13.14;71.06;98946.34;233760;180;151228;-64
2024/03/16 21:10:47;;;;;;;9.50;4.90;;;;;;;13.19;71.30;98951.81;233602;180;137373;-64
2024/03/16 21:15:50;;;;;;;9.20;5.30;;;;;;;13.19;71.31;98958.02;233757;179;137096;-64
2024/03/16 21:20:53;;;;;;;12.00;5.50;;;;;;;13.12;71.44;98963.41;233583;180;152573;-64
2024/03/16 21:25:56;;;;;;;10.30;7.10;;;;;;;13.10;71.50;98964.62;233794;180;137169;-64
2024/03/16 21:31:00;;;;;;;9.90;6.10;;;;;;;13.06;71.31;98967.37;233801;180;137364;-64
2024/03/16 21:36:05;;;;;;;12.10;7.00;;;;;;;13.03;71.42;98963.88;233814;180;151166;-63
2024/03/16 21:41:11;;;;;;;16.60;8.90;;;;;;;13.01;71.37;98963.61;233706;180;140338;-62
2024/03/16 21:46:14;;;;;;;17.10;10.80;;;;;;;13.03;71.37;98963.66;233775;180;138792;-63
2024/03/16 21:51:17;;;;;;;17.00;11.50;;;;;;;13.08;71.33;98968.16;233684;180;151359;-64
2024/03/16 21:56:21;;;;;;;16.60;10.30;;;;;;;13.08;71.11;98972.99;233787;180;137367;-64
2024/03/16 22:01:25;;;;;;;16.00;9.60;;;;;;;12.99;71.08;98976.05;233766;180;138029;-64
2024/03/16 22:06:28;;;;;;;15.20;9.50;;;;;;;12.87;71.21;98984.27;233750;179;152722;-65
2024/03/16 22:11:31;;;;;;;12.90;8.20;;;;;;;12.79;71.51;98978.45;233746;179;140293;-63
2024/03/16 22:16:34;;;;;;;11.20;6.50;;;;;;;12.76;71.59;98974.52;233773;180;139282;-64
2024/03/16 22:21:37;;;;;;;9.40;6.30;;;;;;;12.75;71.64;98976.20;233779;179;151524;-64
2024/03/16 22:26:40;;;;;;;11.10;6.30;;;;;;;12.72;71.75;98983.73;233805;180;137448;-63
2024/03/16 22:31:43;;;;;;;13.70;6.60;;;;;;;12.66;71.83;98985.44;233599;168;138264;-64
2024/03/16 22:36:46;;;;;;;9.60;6.20;;;;;;;12.59;72.00;98985.58;233676;179;152536;-63
2024/03/16 22:41:49;;;;;;;13.90;5.60;;;;;;;12.52;72.35;98991.23;233792;179;139473;-63
2024/03/16 22:46:52;;;;;;;8.60;5.80;;;;;;;12.43;72.61;98994.71;233600;179;138533;-63
2024/03/16 22:51:56;;;;;;;10.50;5.70;;;;;;;12.39;73.07;99002.44;233775;179;151493;-63
2024/03/16 22:56:58;;;;;;;11.30;6.40;;;;;;;12.44;73.31;99007.99;233698;180;137942;-63
2024/03/16 23:02:03;;;;;;;9.60;6.30;;;;;;;12.48;73.36;99010.69;233421;179;137747;-63
2024/03/16 23:07:06;;;;;;;12.50;7.20;;;;;;;12.44;73.54;99016.91;233762;179;151452;-63
2024/03/16 23:12:10;;;;;;;11.80;7.10;;;;;;;12.37;73.88;99022.68;233759;180;138336;-63
2024/03/16 23:17:15;;;;;;;11.70;7.60;;;;;;;12.33;74.21;99025.11;233731;180;137626;-63
2024/03/16 23:22:18;;;;;;;13.90;7.20;;;;;;;12.25;74.47;99033.48;233755;179;151116;-63